createdAt,value
2022-12-24T00:03:03.000Z,2.7
2022-12-24T00:06:36.000Z,2.6
2022-12-24T00:10:09.000Z,3
2022-12-24T00:13:41.000Z,2.8
2022-12-24T00:17:14.000Z,2.9
2022-12-24T00:20:47.000Z,2.5
2022-12-24T00:23:38.000Z,2.8
2022-12-24T00:27:11.000Z,2.6
2022-12-24T00:30:43.000Z,2.8
2022-12-24T00:34:16.000Z,2.7
2022-12-24T00:37:48.000Z,2.2
2022-12-24T00:41:21.000Z,2.3
2022-12-24T00:44:54.000Z,2.2
2022-12-24T00:48:27.000Z,2.6
2022-12-24T00:52:00.000Z,2.3
2022-12-24T00:55:33.000Z,2.4
2022-12-24T00:59:05.000Z,2.8
2022-12-24T01:01:57.000Z,3
2022-12-24T01:05:30.000Z,2.6
2022-12-24T01:09:02.000Z,2.4
2022-12-24T01:12:35.000Z,2.4
2022-12-24T01:16:08.000Z,2.5
2022-12-24T01:19:40.000Z,2.3
2022-12-24T01:23:13.000Z,2.3
2022-12-24T01:26:46.000Z,2
2022-12-24T01:30:18.000Z,2.3
2022-12-24T01:33:51.000Z,2.6
2022-12-24T01:37:24.000Z,1.7
2022-12-24T01:40:15.000Z,2.3
2022-12-24T01:43:47.000Z,2.3
2022-12-24T01:47:20.000Z,2
2022-12-24T01:50:53.000Z,2.5
2022-12-24T01:54:26.000Z,2.7
2022-12-24T01:57:58.000Z,2.3
2022-12-24T02:01:31.000Z,2
2022-12-24T02:05:04.000Z,2.7
2022-12-24T02:08:37.000Z,2.1
2022-12-24T02:12:10.000Z,2.4
2022-12-24T02:15:42.000Z,2.2
2022-12-24T02:18:33.000Z,2.3
2022-12-24T02:22:06.000Z,2.6
2022-12-24T02:25:39.000Z,2.2
2022-12-24T02:29:11.000Z,2.6
2022-12-24T02:32:44.000Z,2.1
2022-12-24T02:36:17.000Z,2.6
2022-12-24T02:39:50.000Z,2.5
2022-12-24T02:43:22.000Z,2.3
2022-12-24T02:46:55.000Z,2.6
2022-12-24T02:50:28.000Z,2.1
2022-12-24T02:54:00.000Z,2.3
2022-12-24T02:56:52.000Z,2.1
2022-12-24T03:00:24.000Z,2.6
2022-12-24T03:03:57.000Z,2.4
2022-12-24T03:07:30.000Z,2.5
2022-12-24T03:11:02.000Z,2.9
2022-12-24T03:14:35.000Z,2.6
2022-12-24T03:18:08.000Z,2.6
2022-12-24T03:21:40.000Z,2.4
2022-12-24T03:25:13.000Z,2.8
2022-12-24T03:28:45.000Z,2.5
2022-12-24T03:32:18.000Z,2.7
2022-12-24T03:35:09.000Z,2.7
2022-12-24T03:38:42.000Z,2.5
2022-12-24T03:42:15.000Z,2.6
2022-12-24T03:45:47.000Z,2.8
2022-12-24T03:49:20.000Z,2.6
2022-12-24T03:52:53.000Z,3.4
2022-12-24T03:56:25.000Z,2.9
2022-12-24T03:59:58.000Z,3.1
2022-12-24T04:03:31.000Z,2.6
2022-12-24T04:07:04.000Z,3
2022-12-24T04:10:36.000Z,2.6
2022-12-24T04:13:27.000Z,3.1
2022-12-24T04:17:00.000Z,2.4
2022-12-24T04:20:33.000Z,2.6
2022-12-24T04:24:06.000Z,2.8
2022-12-24T04:27:38.000Z,2.4
2022-12-24T04:31:11.000Z,2.8
2022-12-24T04:34:43.000Z,2.8
2022-12-24T04:38:16.000Z,2.7
2022-12-24T04:41:49.000Z,2.3
2022-12-24T04:45:21.000Z,3
2022-12-24T04:48:54.000Z,2.8
2022-12-24T04:51:45.000Z,2.8
2022-12-24T04:55:18.000Z,2.9
2022-12-24T04:58:50.000Z,2.6
2022-12-24T05:02:23.000Z,2.8
2022-12-24T05:05:56.000Z,3.2
2022-12-24T05:09:29.000Z,3.2
2022-12-24T05:13:02.000Z,2.9
2022-12-24T05:16:35.000Z,3.3
2022-12-24T05:20:08.000Z,3.2
2022-12-24T05:23:40.000Z,3.3
2022-12-24T05:27:13.000Z,3.3
2022-12-24T05:30:04.000Z,3.1
2022-12-24T05:33:36.000Z,3.1
2022-12-24T05:37:09.000Z,3.8
2022-12-24T05:40:41.000Z,3.5
2022-12-24T05:44:14.000Z,3.1
2022-12-24T05:47:47.000Z,2.9
2022-12-24T05:51:19.000Z,3.5
2022-12-24T05:54:52.000Z,2.2
2022-12-24T05:58:24.000Z,1.9
2022-12-24T06:01:57.000Z,2.2
2022-12-24T06:05:30.000Z,2.2
2022-12-24T06:08:21.000Z,2.2
2022-12-24T06:11:54.000Z,2.1
2022-12-24T06:15:27.000Z,2
2022-12-24T06:18:59.000Z,1.8
2022-12-24T06:22:32.000Z,2.1
2022-12-24T06:26:05.000Z,2.2
2022-12-24T06:29:37.000Z,2.1
2022-12-24T06:33:10.000Z,1.8
2022-12-24T06:36:43.000Z,1.7
2022-12-24T06:40:16.000Z,2.1
2022-12-24T06:43:48.000Z,1.6
2022-12-24T06:46:39.000Z,1.8
2022-12-24T06:50:12.000Z,1.9
2022-12-24T06:53:45.000Z,2.9
2022-12-24T06:57:17.000Z,2.6
2022-12-24T07:00:50.000Z,1.9
2022-12-24T07:04:23.000Z,2.8
2022-12-24T07:07:56.000Z,2.3
2022-12-24T07:11:28.000Z,3.1
2022-12-24T07:15:01.000Z,2.3
2022-12-24T07:18:34.000Z,1.4
2022-12-24T07:22:07.000Z,1.4
2022-12-24T07:24:59.000Z,1.1
2022-12-24T07:28:32.000Z,1
2022-12-24T07:32:05.000Z,1.4
2022-12-24T07:35:37.000Z,1.5
2022-12-24T07:39:14.000Z,1.4
2022-12-24T07:42:47.000Z,1.5
2022-12-24T07:46:20.000Z,7.2
2022-12-24T07:49:52.000Z,1.7
2022-12-24T07:53:25.000Z,1.2
2022-12-24T07:56:58.000Z,1.3
2022-12-24T08:00:30.000Z,1.2
2022-12-24T08:03:21.000Z,1.3
2022-12-24T08:06:54.000Z,1.6
2022-12-24T08:10:27.000Z,1.8
2022-12-24T08:14:00.000Z,2.2
2022-12-24T08:17:32.000Z,2.8
2022-12-24T08:21:05.000Z,2.9
2022-12-24T08:24:38.000Z,3.8
2022-12-24T08:28:10.000Z,3.6
2022-12-24T08:31:43.000Z,3.4
2022-12-24T08:35:16.000Z,3.1
2022-12-24T08:38:48.000Z,3
2022-12-24T08:41:39.000Z,3.4
2022-12-24T08:45:12.000Z,3
2022-12-24T08:48:45.000Z,3
2022-12-24T08:52:17.000Z,2.2
2022-12-24T08:55:50.000Z,2.7
2022-12-24T08:59:22.000Z,4.1
2022-12-24T09:02:55.000Z,3.9
2022-12-24T09:06:28.000Z,2.4
2022-12-24T09:10:01.000Z,2.8
2022-12-24T09:13:33.000Z,4.3
2022-12-24T09:17:06.000Z,4.3
2022-12-24T09:19:57.000Z,11.2
2022-12-24T09:23:30.000Z,15.5
2022-12-24T09:27:03.000Z,2.5
2022-12-24T09:30:36.000Z,4.6
2022-12-24T09:34:09.000Z,3.4
2022-12-24T09:37:42.000Z,2.1
2022-12-24T09:41:14.000Z,2.5
2022-12-24T09:44:47.000Z,2.5
2022-12-24T09:48:20.000Z,2.9
2022-12-24T09:51:52.000Z,2.8
2022-12-24T09:55:25.000Z,9.6
2022-12-24T09:58:16.000Z,8.7
2022-12-24T10:01:49.000Z,5.3
2022-12-24T10:05:22.000Z,3.7
2022-12-24T10:08:55.000Z,4.2
2022-12-24T10:12:28.000Z,4.7
2022-12-24T10:16:00.000Z,3.9
2022-12-24T10:19:33.000Z,4.3
2022-12-24T10:23:06.000Z,3.8
2022-12-24T10:26:46.000Z,4.2
2022-12-24T10:30:19.000Z,3.9
2022-12-24T10:33:52.000Z,4.9
2022-12-24T10:36:43.000Z,4.2
2022-12-24T10:40:16.000Z,4.3
2022-12-24T10:43:48.000Z,4
2022-12-24T10:47:21.000Z,4.3
2022-12-24T10:50:54.000Z,4.4
2022-12-24T10:54:26.000Z,4.7
2022-12-24T10:57:59.000Z,4.1
2022-12-24T11:01:32.000Z,4.2
2022-12-24T11:05:05.000Z,4.4
2022-12-24T11:08:37.000Z,4.3
2022-12-24T11:12:10.000Z,4.7
2022-12-24T11:15:01.000Z,3.8
2022-12-24T11:18:34.000Z,4.3
2022-12-24T11:22:15.000Z,4.2
2022-12-24T11:25:48.000Z,5.6
2022-12-24T11:29:21.000Z,4
2022-12-24T11:32:54.000Z,4.3
2022-12-24T11:36:26.000Z,4.2
2022-12-24T11:39:59.000Z,4.4
2022-12-24T11:43:31.000Z,4.2
2022-12-24T11:47:04.000Z,3.9
2022-12-24T11:50:37.000Z,3.2
2022-12-24T11:53:28.000Z,3.5
2022-12-24T11:57:01.000Z,3.5
2022-12-24T12:00:33.000Z,4.1
2022-12-24T12:04:06.000Z,3.1
2022-12-24T12:07:39.000Z,3.7
2022-12-24T12:11:12.000Z,3.6
2022-12-24T12:14:44.000Z,3
2022-12-24T12:18:17.000Z,3.4
2022-12-24T12:21:49.000Z,3.1
2022-12-24T12:25:22.000Z,3.5
2022-12-24T12:28:55.000Z,3.6
2022-12-24T12:31:46.000Z,2.9
2022-12-24T12:35:19.000Z,4.1
2022-12-24T12:38:51.000Z,3.5
2022-12-24T12:42:24.000Z,4
2022-12-24T12:45:57.000Z,4.3
2022-12-24T12:49:29.000Z,3.9
2022-12-24T12:53:02.000Z,3.8
2022-12-24T12:56:35.000Z,3.5
2022-12-24T13:00:07.000Z,3.6
2022-12-24T13:03:40.000Z,3
2022-12-24T13:07:13.000Z,3.3
2022-12-24T13:10:04.000Z,3.9
2022-12-24T13:13:37.000Z,3.6
2022-12-24T13:17:09.000Z,4.5
2022-12-24T13:20:42.000Z,3.9
2022-12-24T13:24:15.000Z,4.3
2022-12-24T13:27:47.000Z,4.2
2022-12-24T13:31:20.000Z,3.3
2022-12-24T13:34:53.000Z,4
2022-12-24T13:38:26.000Z,4.1
2022-12-24T13:41:58.000Z,2.9
2022-12-24T13:45:31.000Z,3.6
2022-12-24T13:48:23.000Z,3.1
2022-12-24T13:51:55.000Z,3.5
2022-12-24T13:55:28.000Z,3
2022-12-24T13:59:00.000Z,3.7
2022-12-24T14:02:33.000Z,3.9
2022-12-24T14:06:07.000Z,4.4
2022-12-24T14:09:39.000Z,4.5
2022-12-24T14:13:12.000Z,6.5
2022-12-24T14:16:45.000Z,6
2022-12-24T14:20:18.000Z,4.5
2022-12-24T14:23:50.000Z,4.1
2022-12-24T14:26:41.000Z,3.8
2022-12-24T14:30:14.000Z,4.4
2022-12-24T14:33:47.000Z,4.3
2022-12-24T14:37:19.000Z,4.2
2022-12-24T14:40:59.000Z,3.6
2022-12-24T14:44:32.000Z,4.9
2022-12-24T14:48:05.000Z,4.2
2022-12-24T14:51:38.000Z,4.7
2022-12-24T14:55:17.000Z,9.7
2022-12-24T14:58:50.000Z,4.8
2022-12-24T15:02:23.000Z,4.9
2022-12-24T15:05:14.000Z,6
2022-12-24T15:08:46.000Z,4.1
2022-12-24T15:12:19.000Z,4.9
2022-12-24T15:15:52.000Z,9.1
2022-12-24T15:19:24.000Z,6.4
2022-12-24T15:23:03.000Z,5.6
2022-12-24T15:26:35.000Z,6.2
2022-12-24T15:30:08.000Z,7.7
2022-12-24T15:33:41.000Z,8.6
2022-12-24T15:37:13.000Z,7.8
2022-12-24T15:40:46.000Z,9.1
2022-12-24T15:43:37.000Z,5.9
2022-12-24T15:47:10.000Z,4.6
2022-12-24T15:50:42.000Z,9.4
2022-12-24T15:54:15.000Z,6.6
2022-12-24T15:57:48.000Z,4.9
2022-12-24T16:01:21.000Z,4.8
2022-12-24T16:04:54.000Z,4.2
2022-12-24T16:08:26.000Z,4.2
2022-12-24T16:11:59.000Z,3.9
2022-12-24T16:15:32.000Z,3.8
2022-12-24T16:19:04.000Z,3.4
2022-12-24T16:21:56.000Z,3.6
2022-12-24T16:25:28.000Z,4.3
2022-12-24T16:29:01.000Z,3.4
2022-12-24T16:32:34.000Z,3.5
2022-12-24T16:36:06.000Z,3.3
2022-12-24T16:39:39.000Z,3.2
2022-12-24T16:43:12.000Z,2.9
2022-12-24T16:46:44.000Z,7.6
2022-12-24T16:50:17.000Z,5.2
2022-12-24T16:53:50.000Z,4
2022-12-24T16:57:22.000Z,3.8
2022-12-24T17:00:13.000Z,5.8
2022-12-24T17:03:46.000Z,5.9
2022-12-24T17:07:19.000Z,4.9
2022-12-24T17:10:52.000Z,3.7
2022-12-24T17:14:24.000Z,9.5
2022-12-24T17:17:57.000Z,7.6
2022-12-24T17:21:30.000Z,4.5
2022-12-24T17:25:02.000Z,2.8
2022-12-24T17:28:35.000Z,2.8
2022-12-24T17:32:08.000Z,5.1
2022-12-24T17:35:40.000Z,5.3
2022-12-24T17:38:32.000Z,3.6
2022-12-24T17:42:05.000Z,3.1
2022-12-24T17:45:37.000Z,2.8
2022-12-24T17:49:10.000Z,4.7
2022-12-24T17:52:42.000Z,3
2022-12-24T17:56:15.000Z,3.6
2022-12-24T17:59:48.000Z,5.3
2022-12-24T18:03:20.000Z,7
2022-12-24T18:06:53.000Z,4
2022-12-24T18:10:28.000Z,4
2022-12-24T18:14:01.000Z,4.8
2022-12-24T18:16:52.000Z,3.6
2022-12-24T18:20:24.000Z,4.1
2022-12-24T18:23:57.000Z,5.6
2022-12-24T18:27:30.000Z,6
2022-12-24T18:31:02.000Z,5.6
2022-12-24T18:34:35.000Z,5.2
2022-12-24T18:38:08.000Z,5.1
2022-12-24T18:41:40.000Z,4.9
2022-12-24T18:45:13.000Z,4.8
2022-12-24T18:48:46.000Z,5.1
2022-12-24T18:52:18.000Z,5.2
2022-12-24T18:55:10.000Z,5.4
2022-12-24T18:58:42.000Z,5.5
2022-12-24T19:02:15.000Z,5.2
2022-12-24T19:05:48.000Z,4.3
2022-12-24T19:09:20.000Z,4.6
2022-12-24T19:12:53.000Z,6
2022-12-24T19:16:26.000Z,4.6
2022-12-24T19:19:59.000Z,4.8
2022-12-24T19:23:31.000Z,4.2
2022-12-24T19:27:04.000Z,4.3
2022-12-24T19:30:37.000Z,4.6
2022-12-24T19:33:28.000Z,4
2022-12-24T19:37:07.000Z,4.8
2022-12-24T19:40:40.000Z,4
2022-12-24T19:44:13.000Z,4.8
2022-12-24T19:47:45.000Z,4.6
2022-12-24T19:51:18.000Z,4.6
2022-12-24T19:54:51.000Z,4.5
2022-12-24T19:58:23.000Z,4.3
2022-12-24T20:01:56.000Z,4.6
2022-12-24T20:05:29.000Z,4.7
2022-12-24T20:09:01.000Z,5.5
2022-12-24T20:11:52.000Z,7.9
2022-12-24T20:15:25.000Z,7.5
2022-12-24T20:18:58.000Z,5.9
2022-12-24T20:22:30.000Z,5.1
2022-12-24T20:26:03.000Z,5.5
2022-12-24T20:29:36.000Z,8.3
2022-12-24T20:33:08.000Z,8
2022-12-24T20:36:41.000Z,7.7
2022-12-24T20:40:14.000Z,8.1
2022-12-24T20:43:47.000Z,6.2
2022-12-24T20:47:20.000Z,7.9
2022-12-24T20:50:11.000Z,10.7
2022-12-24T20:53:44.000Z,12
2022-12-24T20:57:16.000Z,13.2
2022-12-24T21:00:55.000Z,14.2
2022-12-24T21:04:28.000Z,13.5
2022-12-24T21:08:01.000Z,15
2022-12-24T21:11:33.000Z,17.9
2022-12-24T21:15:06.000Z,17.3
2022-12-24T21:18:39.000Z,19.8
2022-12-24T21:22:12.000Z,19.2
2022-12-24T21:25:44.000Z,18.3
2022-12-24T21:28:36.000Z,18.3
2022-12-24T21:32:08.000Z,16.2
2022-12-24T21:35:41.000Z,16.5
2022-12-24T21:39:13.000Z,14
2022-12-24T21:42:46.000Z,13.7
2022-12-24T21:46:19.000Z,11.3
2022-12-24T21:49:52.000Z,10.1
2022-12-24T21:53:24.000Z,10.1
2022-12-24T21:56:57.000Z,11.2
2022-12-24T22:00:30.000Z,11.6
2022-12-24T22:04:03.000Z,10.1
2022-12-24T22:06:54.000Z,11.6
2022-12-24T22:10:26.000Z,11.1
2022-12-24T22:13:59.000Z,12.2
2022-12-24T22:17:32.000Z,11.6
2022-12-24T22:21:04.000Z,12.8
2022-12-24T22:24:37.000Z,12.9
2022-12-24T22:28:10.000Z,12.1
2022-12-24T22:31:42.000Z,12
2022-12-24T22:35:15.000Z,11
2022-12-24T22:38:48.000Z,10.4
2022-12-24T22:42:20.000Z,10.6
2022-12-24T22:45:12.000Z,10.4
2022-12-24T22:48:48.000Z,10.7
2022-12-24T22:52:20.000Z,9.5
2022-12-24T22:55:53.000Z,9.4
2022-12-24T22:59:26.000Z,9.3
2022-12-24T23:02:58.000Z,9.2
2022-12-24T23:06:32.000Z,9.5
2022-12-24T23:10:04.000Z,8.4
2022-12-24T23:13:37.000Z,9.4
2022-12-24T23:17:09.000Z,8.8
2022-12-24T23:20:42.000Z,7.6
2022-12-24T23:23:33.000Z,8.5
2022-12-24T23:27:06.000Z,9.2
2022-12-24T23:30:38.000Z,7.7
2022-12-24T23:34:11.000Z,7.9
2022-12-24T23:37:44.000Z,7.4
2022-12-24T23:41:16.000Z,8.1
2022-12-24T23:44:49.000Z,8.9
2022-12-24T23:48:22.000Z,9.3
2022-12-24T23:51:54.000Z,10.3
2022-12-24T23:55:27.000Z,10.8
2022-12-24T23:59:00.000Z,11
